Time;durP1;ratioP1;P1;durP2;ratioP2;P2;SDS_P1;SDS_P2;PMS_P1;PMS_P2;Temp;Humidity;BMP_temperature;BMP_pressure;BME280_temperature;BME280_humidity;BME280_pressure;Samples;Min_cycle;Max_cycle;Signal;HPM_P1;HPM_P2
2023/02/08 00:00:40;;;;;;;;;;;4.90;96.70;;;;;;5062135;28;19928;-70
2023/02/08 00:03:10;;;;;;;;;;;4.90;96.70;;;;;;5053875;28;19930;-70
2023/02/08 00:05:37;;;;;;;;;;;4.90;96.70;;;;;;5086076;28;19927;-70
2023/02/08 00:08:06;;;;;;;;;;;5.00;96.70;;;;;;5085726;28;19969;-70
2023/02/08 00:10:34;;;;;;;;;;;5.00;96.70;;;;;;5076025;28;20277;-69
2023/02/08 00:13:01;;;;;;;;;;;4.90;96.70;;;;;;5081065;28;19924;-70
2023/02/08 00:15:29;;;;;;;;;;;5.00;96.70;;;;;;5075905;28;19927;-69
2023/02/08 00:17:57;;;;;;;;;;;5.20;96.70;;;;;;5083852;28;20022;-70
2023/02/08 00:20:25;;;;;;;;;;;5.20;96.70;;;;;;5071504;28;19965;-69
2023/02/08 00:22:53;;;;;;;;;;;5.10;96.70;;;;;;5080976;28;19973;-70
2023/02/08 00:25:21;;;;;;;;;;;5.20;96.70;;;;;;5061079;28;19932;-69
2023/02/08 00:27:48;;;;;;;;;;;5.30;96.70;;;;;;5072576;28;19932;-70
2023/02/08 00:30:16;;;;;;;;;;;5.20;96.70;;;;;;5062065;28;19931;-69
2023/02/08 00:32:44;;;;;;;;;;;5.20;96.70;;;;;;5064550;28;19946;-68
2023/02/08 00:35:11;;;;;;;;;;;5.20;96.70;;;;;;5066803;28;19924;-69
2023/02/08 00:37:40;;;;;;;;;;;5.30;96.70;;;;;;5078797;28;19923;-72
2023/02/08 00:40:10;;;;;;;;;;;5.30;96.70;;;;;;5085014;28;19928;-73
2023/02/08 00:42:38;;;;;;;;;;;5.30;96.70;;;;;;5059514;28;20538;-72
2023/02/08 00:45:06;;;;;;;;;;;5.30;96.70;;;;;;5061981;28;19924;-68
2023/02/08 00:47:33;;;;;;;;;;;5.40;96.70;;;;;;5067671;28;19923;-69
2023/02/08 00:50:01;;;;;;;;;;;5.30;96.70;;;;;;5067002;28;19928;-69
2023/02/08 00:52:29;;;;;;;;;;;5.20;96.70;;;;;;5056188;28;19934;-69
2023/02/08 00:54:58;;;;;;;;;;;5.10;96.70;;;;;;5078135;28;19924;-68
2023/02/08 00:57:25;;;;;;;;;;;5.10;96.70;;;;;;5056396;28;20043;-69
2023/02/08 00:59:53;;;;;;;;;;;5.20;96.70;;;;;;5085184;28;19935;-69
2023/02/08 01:02:21;;;;;;;;;;;5.20;96.70;;;;;;5083564;28;20026;-69
2023/02/08 01:04:48;;;;;;;;;;;5.20;96.70;;;;;;5063204;28;20502;-69
2023/02/08 01:07:16;;;;;;;;;;;5.20;96.70;;;;;;5077142;28;20515;-69
2023/02/08 01:09:44;;;;;;;;;;;5.20;96.70;;;;;;5052668;28;19924;-69
2023/02/08 01:12:13;;;;;;;;;;;5.20;96.70;;;;;;5057648;28;19924;-70
2023/02/08 01:14:41;;;;;;;;;;;5.10;96.70;;;;;;5061420;28;20142;-69
2023/02/08 01:17:08;;;;;;;;;;;5.00;96.70;;;;;;5063633;28;19923;-69
2023/02/08 01:19:36;;;;;;;;;;;5.20;96.70;;;;;;5067006;28;20024;-68
2023/02/08 01:22:03;;;;;;;;;;;5.30;96.70;;;;;;5063730;28;19969;-70
2023/02/08 01:24:31;;;;;;;;;;;5.10;96.70;;;;;;5078627;28;19924;-69
2023/02/08 01:26:59;;;;;;;;;;;5.20;96.70;;;;;;5076847;28;20369;-70
2023/02/08 01:29:28;;;;;;;;;;;5.10;96.70;;;;;;5062889;28;19928;-69
2023/02/08 01:31:55;;;;;;;;;;;5.00;96.70;;;;;;5078742;28;19924;-69
2023/02/08 01:34:23;;;;;;;;;;;5.10;96.70;;;;;;5079088;28;20435;-70
2023/02/08 01:36:51;;;;;;;;;;;5.10;96.70;;;;;;5081758;28;20401;-70
2023/02/08 01:39:18;;;;;;;;;;;5.00;96.70;;;;;;5081731;28;19924;-69
2023/02/08 01:41:46;;;;;;;;;;;4.90;96.70;;;;;;5083750;28;19923;-69
2023/02/08 01:44:32;;;;;;;;;;;4.90;96.70;;;;;;5063092;28;19934;-70
2023/02/08 01:47:02;;;;;;;;;;;4.70;96.70;;;;;;5083718;28;19950;-69
2023/02/08 01:49:32;;;;;;;;;;;4.70;96.70;;;;;;5049103;28;19928;-73
2023/02/08 01:52:01;;;;;;;;;;;4.60;96.70;;;;;;5049813;28;20629;-72
2023/02/08 01:54:31;;;;;;;;;;;4.70;96.70;;;;;;5054775;28;19939;-73
2023/02/08 01:56:59;;;;;;;;;;;4.70;96.70;;;;;;5059952;28;19930;-72
2023/02/08 01:59:31;;;;;;;;;;;4.70;96.70;;;;;;5055179;28;20378;-72
2023/02/08 02:01:59;;;;;;;;;;;4.70;96.70;;;;;;5077861;28;20278;-73
2023/02/08 02:04:29;;;;;;;;;;;4.70;96.70;;;;;;5059222;28;19947;-69
2023/02/08 02:06:58;;;;;;;;;;;4.70;96.70;;;;;;5057648;28;19956;-69
2023/02/08 02:09:30;;;;;;;;;;;4.60;96.70;;;;;;5064906;28;19984;-69
2023/02/08 02:11:59;;;;;;;;;;;4.70;96.70;;;;;;5083642;28;19931;-69
2023/02/08 02:14:26;;;;;;;;;;;4.60;96.70;;;;;;5064747;28;19924;-68
2023/02/08 02:16:54;;;;;;;;;;;4.60;96.70;;;;;;5056448;28;20383;-69
2023/02/08 02:19:25;;;;;;;;;;;4.60;96.70;;;;;;5059937;28;19928;-69
2023/02/08 02:22:02;;;;;;;;;;;4.60;96.70;;;;;;5072166;28;20027;-69
2023/02/08 02:24:48;;;;;;;;;;;4.70;96.70;;;;;;5058611;28;19969;-70
2023/02/08 02:27:28;;;;;;;;;;;4.80;96.70;;;;;;5061309;28;20046;-69
2023/02/08 02:30:23;;;;;;;;;;;4.80;96.70;;;;;;5044161;28;19924;-69
2023/02/08 02:32:59;;;;;;;;;;;4.70;96.70;;;;;;5057711;28;19931;-71
2023/02/08 02:35:31;;;;;;;;;;;4.60;96.70;;;;;;5061691;28;19962;-69
2023/02/08 02:38:03;;;;;;;;;;;4.70;96.70;;;;;;5064694;28;20027;-70
2023/02/08 02:40:35;;;;;;;;;;;4.70;96.70;;;;;;5057400;28;19964;-73
2023/02/08 02:45:58;;;;;;;;;;;4.80;96.70;;;;;;5071719;28;19923;-70
2023/02/08 02:48:31;;;;;;;;;;;4.70;96.70;;;;;;5056702;28;20474;-72
2023/02/08 02:51:02;;;;;;;;;;;4.70;96.70;;;;;;5068391;28;19924;-73
2023/02/08 02:53:32;;;;;;;;;;;4.70;96.70;;;;;;5070519;28;19965;-73
2023/02/08 02:56:04;;;;;;;;;;;4.70;96.70;;;;;;5056509;28;19944;-73
2023/02/08 02:58:32;;;;;;;;;;;4.70;96.70;;;;;;5058544;28;20022;-73
2023/02/08 03:00:59;;;;;;;;;;;4.70;96.70;;;;;;5062783;28;20384;-73
2023/02/08 03:03:30;;;;;;;;;;;4.60;96.70;;;;;;5070384;28;19974;-73
2023/02/08 03:05:59;;;;;;;;;;;4.50;96.70;;;;;;5052489;28;19924;-72
2023/02/08 03:08:45;;;;;;;;;;;4.50;96.70;;;;;;5074142;28;19986;-73
2023/02/08 03:11:15;;;;;;;;;;;4.60;96.70;;;;;;5053403;28;19924;-73
2023/02/08 03:13:49;;;;;;;;;;;4.70;96.70;;;;;;5057811;28;20223;-73
2023/02/08 03:16:19;;;;;;;;;;;4.70;96.70;;;;;;5061971;28;20363;-73
2023/02/08 03:18:55;;;;;;;;;;;4.50;96.70;;;;;;5079292;28;19930;-72
2023/02/08 03:21:28;;;;;;;;;;;4.40;96.70;;;;;;5058042;28;19930;-73
2023/02/08 03:24:00;;;;;;;;;;;4.30;96.70;;;;;;5075272;28;19928;-73
2023/02/08 03:26:31;;;;;;;;;;;4.30;96.70;;;;;;5063687;28;19942;-73
2023/02/08 03:29:02;;;;;;;;;;;4.30;96.70;;;;;;5059949;28;19920;-73
2023/02/08 03:31:32;;;;;;;;;;;4.30;96.70;;;;;;5055966;28;19924;-73
2023/02/08 03:34:05;;;;;;;;;;;4.30;96.70;;;;;;5064491;28;19947;-73
2023/02/08 03:36:37;;;;;;;;;;;4.40;96.70;;;;;;5052263;28;19924;-73
2023/02/08 03:39:07;;;;;;;;;;;4.30;96.70;;;;;;5084125;28;19924;-73
2023/02/08 03:41:36;;;;;;;;;;;4.40;96.70;;;;;;5085949;28;19969;-72
2023/02/08 03:44:06;;;;;;;;;;;4.50;96.70;;;;;;5068106;28;20343;-73
2023/02/08 03:46:36;;;;;;;;;;;4.50;96.70;;;;;;5053042;28;19974;-73
2023/02/08 03:49:06;;;;;;;;;;;4.60;96.70;;;;;;5070201;28;19928;-72
2023/02/08 03:51:35;;;;;;;;;;;4.50;96.70;;;;;;5076500;28;19925;-73
2023/02/08 03:54:05;;;;;;;;;;;4.50;96.70;;;;;;5061954;28;19924;-73
2023/02/08 03:56:34;;;;;;;;;;;4.60;96.70;;;;;;5057066;28;19998;-73
2023/02/08 03:59:03;;;;;;;;;;;4.60;96.70;;;;;;5059190;28;19950;-73
2023/02/08 04:01:32;;;;;;;;;;;4.40;96.70;;;;;;5052913;28;20014;-72
2023/02/08 04:04:00;;;;;;;;;;;4.30;96.70;;;;;;5061811;28;19993;-72
2023/02/08 04:06:31;;;;;;;;;;;4.20;96.70;;;;;;5067799;28;19927;-72
2023/02/08 04:08:58;;;;;;;;;;;4.00;96.70;;;;;;5082952;28;20443;-72
2023/02/08 04:11:30;;;;;;;;;;;3.90;96.70;;;;;;5079657;28;19974;-72
2023/02/08 04:14:06;;;;;;;;;;;3.80;96.70;;;;;;5049355;28;20424;-72
2023/02/08 04:16:53;;;;;;;;;;;3.80;96.70;;;;;;5069700;28;20043;-72
2023/02/08 04:19:39;;;;;;;;;;;3.90;96.70;;;;;;5068319;28;20227;-72
2023/02/08 04:22:08;;;;;;;;;;;4.10;96.70;;;;;;5075316;28;20294;-72
2023/02/08 04:24:36;;;;;;;;;;;4.20;96.70;;;;;;5079012;28;20007;-73
2023/02/08 04:27:04;;;;;;;;;;;4.10;96.70;;;;;;5075514;28;19928;-73
2023/02/08 04:29:32;;;;;;;;;;;4.10;96.70;;;;;;5042022;28;19927;-73
2023/02/08 04:32:00;;;;;;;;;;;4.10;96.70;;;;;;5074407;28;19928;-73
2023/02/08 04:34:31;;;;;;;;;;;4.20;96.70;;;;;;5061213;28;19928;-73
2023/02/08 04:36:59;;;;;;;;;;;4.30;96.70;;;;;;5084115;28;19969;-73
2023/02/08 04:39:28;;;;;;;;;;;4.30;96.70;;;;;;5078135;28;19923;-73
2023/02/08 04:41:56;;;;;;;;;;;4.20;96.70;;;;;;5077651;28;19924;-72
2023/02/08 04:44:24;;;;;;;;;;;4.30;96.70;;;;;;5059054;28;19936;-72
2023/02/08 04:46:52;;;;;;;;;;;4.30;96.70;;;;;;5074807;28;19924;-73
2023/02/08 04:49:19;;;;;;;;;;;4.30;96.70;;;;;;5049740;28;19924;-73
2023/02/08 04:51:47;;;;;;;;;;;4.30;96.70;;;;;;5049032;28;19930;-73
2023/02/08 04:54:15;;;;;;;;;;;4.20;96.70;;;;;;5044837;28;20294;-72
2023/02/08 04:56:45;;;;;;;;;;;4.20;96.70;;;;;;5047706;28;20421;-72
2023/02/08 04:59:12;;;;;;;;;;;4.20;96.70;;;;;;5060078;28;20031;-73
2023/02/08 05:01:40;;;;;;;;;;;4.10;96.70;;;;;;5063066;28;19928;-70
2023/02/08 05:04:08;;;;;;;;;;;4.10;96.70;;;;;;5058911;28;19930;-69
2023/02/08 05:06:36;;;;;;;;;;;4.10;96.70;;;;;;5064571;28;20664;-69
2023/02/08 05:09:06;;;;;;;;;;;4.10;96.70;;;;;;5064230;28;19924;-69
2023/02/08 05:11:33;;;;;;;;;;;4.10;96.70;;;;;;5053810;28;19958;-69
2023/02/08 05:14:03;;;;;;;;;;;4.10;96.70;;;;;;5038985;28;20325;-70
2023/02/08 05:16:31;;;;;;;;;;;4.10;96.70;;;;;;5042312;28;20739;-69
2023/02/08 05:18:58;;;;;;;;;;;4.10;96.70;;;;;;5056794;28;20018;-70
2023/02/08 05:21:26;;;;;;;;;;;4.00;96.70;;;;;;5051424;28;20333;-70
2023/02/08 05:23:54;;;;;;;;;;;4.00;96.70;;;;;;5046839;28;19935;-69
2023/02/08 05:26:22;;;;;;;;;;;4.00;96.70;;;;;;5060279;28;20045;-69
2023/02/08 05:28:51;;;;;;;;;;;4.00;96.70;;;;;;5056527;28;19936;-69
2023/02/08 05:31:21;;;;;;;;;;;4.00;96.70;;;;;;5046188;28;19925;-69
2023/02/08 05:33:50;;;;;;;;;;;4.10;96.70;;;;;;5055794;28;19924;-72
2023/02/08 05:36:18;;;;;;;;;;;3.90;96.70;;;;;;5054376;28;19930;-72
2023/02/08 05:38:46;;;;;;;;;;;3.80;96.70;;;;;;5054618;28;19931;-72
2023/02/08 05:41:13;;;;;;;;;;;3.90;96.70;;;;;;5063811;28;19928;-72
2023/02/08 05:43:41;;;;;;;;;;;4.00;96.70;;;;;;5063325;28;19930;-73
2023/02/08 05:46:09;;;;;;;;;;;3.90;96.70;;;;;;5051369;28;19929;-73
2023/02/08 05:48:38;;;;;;;;;;;3.80;96.70;;;;;;5059916;28;20632;-73
2023/02/08 05:51:06;;;;;;;;;;;3.90;96.70;;;;;;5052782;28;19942;-72
2023/02/08 05:53:34;;;;;;;;;;;4.00;96.70;;;;;;5072190;28;19928;-73
2023/02/08 05:56:01;;;;;;;;;;;4.00;96.70;;;;;;5051149;28;19970;-72
2023/02/08 05:58:29;;;;;;;;;;;3.90;96.70;;;;;;5063360;28;20369;-72
2023/02/08 06:00:57;;;;;;;;;;;4.00;96.70;;;;;;5057433;28;20202;-73
2023/02/08 06:03:26;;;;;;;;;;;4.00;96.70;;;;;;5080745;28;20027;-68
2023/02/08 06:05:59;;;;;;;;;;;4.00;96.70;;;;;;5060361;28;20408;-72
2023/02/08 06:08:27;;;;;;;;;;;4.00;96.70;;;;;;5063784;28;19924;-72
2023/02/08 06:10:55;;;;;;;;;;;3.90;96.70;;;;;;5063720;28;20399;-74
2023/02/08 06:13:22;;;;;;;;;;;4.00;96.70;;;;;;5065381;28;20718;-72
2023/02/08 06:15:50;;;;;;;;;;;4.10;96.70;;;;;;5051484;28;19924;-73
2023/02/08 06:18:18;;;;;;;;;;;4.00;96.70;;;;;;5060418;28;21151;-72
2023/02/08 06:20:46;;;;;;;;;;;4.00;96.70;;;;;;5077001;28;19924;-73
2023/02/08 06:23:15;;;;;;;;;;;4.00;96.70;;;;;;5051388;28;19985;-72
2023/02/08 06:25:43;;;;;;;;;;;4.00;96.70;;;;;;5050760;28;19925;-72
2023/02/08 06:28:11;;;;;;;;;;;3.90;96.70;;;;;;5052321;28;19928;-72
2023/02/08 06:30:38;;;;;;;;;;;3.90;96.70;;;;;;5077111;28;20349;-72
2023/02/08 06:33:16;;;;;;;;;;;4.00;96.70;;;;;;5056018;28;19967;-74
2023/02/08 06:35:44;;;;;;;;;;;3.90;96.70;;;;;;5075762;28;19942;-73
2023/02/08 06:38:12;;;;;;;;;;;3.90;96.70;;;;;;5054350;28;19997;-69
2023/02/08 06:40:42;;;;;;;;;;;3.90;96.70;;;;;;5064244;28;20015;-69
2023/02/08 06:43:10;;;;;;;;;;;4.00;96.70;;;;;;5075736;28;19924;-69
2023/02/08 06:45:37;;;;;;;;;;;4.00;96.70;;;;;;5060365;28;19923;-69
2023/02/08 06:48:05;;;;;;;;;;;4.00;96.70;;;;;;5074383;28;19924;-70
2023/02/08 06:50:33;;;;;;;;;;;4.00;96.70;;;;;;5071896;28;19931;-69
2023/02/08 06:53:01;;;;;;;;;;;4.10;96.70;;;;;;5072572;28;20837;-69
2023/02/08 06:55:29;;;;;;;;;;;4.00;96.70;;;;;;5044248;28;19931;-69
2023/02/08 06:57:59;;;;;;;;;;;3.80;96.70;;;;;;5050339;28;20013;-69
2023/02/08 07:00:27;;;;;;;;;;;3.80;96.70;;;;;;5072516;28;19931;-69
2023/02/08 07:02:55;;;;;;;;;;;3.80;96.70;;;;;;5068055;28;19927;-69
2023/02/08 07:05:23;;;;;;;;;;;3.90;96.70;;;;;;5053280;28;20328;-69
2023/02/08 07:07:51;;;;;;;;;;;3.80;96.70;;;;;;5062439;28;20301;-69
2023/02/08 07:10:19;;;;;;;;;;;3.80;96.70;;;;;;5069018;28;20003;-69
2023/02/08 07:12:46;;;;;;;;;;;3.90;96.70;;;;;;5046509;28;19930;-69
2023/02/08 07:15:16;;;;;;;;;;;3.90;96.70;;;;;;5082270;28;20330;-70
2023/02/08 07:17:44;;;;;;;;;;;3.70;96.70;;;;;;5081817;28;19931;-69
2023/02/08 07:20:12;;;;;;;;;;;3.70;96.70;;;;;;5076749;28;19924;-69
2023/02/08 07:22:40;;;;;;;;;;;3.80;96.70;;;;;;5060881;28;19931;-69
2023/02/08 07:25:08;;;;;;;;;;;4.00;96.70;;;;;;5064492;28;20845;-69
2023/02/08 07:27:36;;;;;;;;;;;4.20;96.70;;;;;;5057256;28;19927;-69
2023/02/08 07:30:06;;;;;;;;;;;4.20;96.70;;;;;;5076460;28;20011;-69
2023/02/08 07:32:36;;;;;;;;;;;4.20;96.70;;;;;;5059076;28;19939;-71
2023/02/08 07:35:04;;;;;;;;;;;4.30;96.70;;;;;;5037661;28;19931;-70
2023/02/08 07:37:32;;;;;;;;;;;4.30;96.70;;;;;;5050404;28;20432;-70
2023/02/08 07:40:00;;;;;;;;;;;4.30;96.70;;;;;;5045094;28;19924;-70
2023/02/08 07:42:28;;;;;;;;;;;4.50;96.70;;;;;;5069182;28;20300;-70
2023/02/08 07:45:19;;;;;;;;;;;4.60;96.70;;;;;;5051904;28;20096;-70
2023/02/08 07:47:49;;;;;;;;;;;4.70;96.70;;;;;;5069197;28;19928;-70
2023/02/08 07:50:17;;;;;;;;;;;4.80;96.70;;;;;;5036853;28;19988;-70
2023/02/08 07:52:46;;;;;;;;;;;4.90;96.70;;;;;;5041052;28;19936;-71
2023/02/08 07:55:17;;;;;;;;;;;5.00;96.70;;;;;;5024120;28;19925;-72
2023/02/08 07:57:46;;;;;;;;;;;5.10;96.70;;;;;;5032064;28;20378;-74
2023/02/08 08:00:15;;;;;;;;;;;5.20;96.70;;;;;;5024016;28;19974;-75
2023/02/08 08:02:43;;;;;;;;;;;5.30;96.70;;;;;;5028660;28;19925;-73
2023/02/08 08:05:12;;;;;;;;;;;5.30;96.70;;;;;;5041828;28;19924;-74
2023/02/08 08:07:40;;;;;;;;;;;5.40;96.70;;;;;;5029713;28;20825;-73
2023/02/08 08:10:08;;;;;;;;;;;5.40;96.70;;;;;;5029766;28;19931;-74
2023/02/08 08:12:37;;;;;;;;;;;5.50;96.70;;;;;;5020598;28;19931;-74
2023/02/08 08:15:05;;;;;;;;;;;5.50;96.70;;;;;;5042186;28;19932;-74
2023/02/08 08:17:33;;;;;;;;;;;5.60;96.70;;;;;;5033521;28;19971;-73
2023/02/08 08:20:01;;;;;;;;;;;5.60;96.70;;;;;;5024084;28;19925;-74
2023/02/08 08:22:30;;;;;;;;;;;5.70;96.70;;;;;;5038504;28;19964;-74
2023/02/08 08:24:58;;;;;;;;;;;5.70;96.70;;;;;;5041381;28;19925;-74
2023/02/08 08:27:26;;;;;;;;;;;5.80;96.70;;;;;;5041176;28;19961;-73
2023/02/08 08:29:54;;;;;;;;;;;5.80;96.70;;;;;;5034995;28;20468;-71
2023/02/08 08:32:25;;;;;;;;;;;5.90;96.70;;;;;;5022254;28;20732;-71
2023/02/08 08:34:55;;;;;;;;;;;5.90;96.70;;;;;;5031473;28;19925;-75
2023/02/08 08:37:22;;;;;;;;;;;6.00;96.70;;;;;;5028799;28;19928;-72
2023/02/08 08:39:51;;;;;;;;;;;6.00;96.70;;;;;;5040940;28;20390;-74
2023/02/08 08:42:19;;;;;;;;;;;6.10;96.70;;;;;;5037078;28;19986;-75
2023/02/08 08:44:47;;;;;;;;;;;6.10;96.70;;;;;;5043716;28;19931;-74
2023/02/08 08:47:14;;;;;;;;;;;6.20;96.70;;;;;;5045300;28;19924;-73
2023/02/08 08:49:42;;;;;;;;;;;6.20;96.70;;;;;;5074199;28;19955;-74
2023/02/08 08:52:10;;;;;;;;;;;6.20;96.70;;;;;;5082097;28;19946;-74
2023/02/08 08:54:38;;;;;;;;;;;6.20;96.70;;;;;;5080588;28;19925;-75
2023/02/08 08:57:07;;;;;;;;;;;6.30;96.70;;;;;;5065722;28;20308;-75
2023/02/08 08:59:34;;;;;;;;;;;6.30;96.70;;;;;;5066966;28;19928;-74
2023/02/08 09:02:02;;;;;;;;;;;6.30;96.70;;;;;;5084546;28;20014;-74
2023/02/08 09:04:29;;;;;;;;;;;6.40;96.70;;;;;;5066770;28;19950;-74
2023/02/08 09:06:57;;;;;;;;;;;6.40;96.70;;;;;;5085095;28;19924;-75
2023/02/08 09:09:24;;;;;;;;;;;6.40;96.70;;;;;;5065082;28;19928;-74
2023/02/08 09:11:52;;;;;;;;;;;6.40;96.70;;;;;;5065704;28;19924;-74
2023/02/08 09:14:21;;;;;;;;;;;6.40;96.70;;;;;;5080538;28;19935;-74
2023/02/08 09:16:49;;;;;;;;;;;6.40;96.70;;;;;;5085288;28;19932;-74
2023/02/08 09:19:16;;;;;;;;;;;6.40;96.70;;;;;;5058415;28;19932;-74
2023/02/08 09:21:44;;;;;;;;;;;6.50;96.70;;;;;;5064287;28;19923;-74
2023/02/08 09:24:11;;;;;;;;;;;6.60;96.70;;;;;;5058959;28;19962;-75
2023/02/08 09:26:39;;;;;;;;;;;6.60;96.70;;;;;;5083726;28;19977;-74
2023/02/08 09:29:07;;;;;;;;;;;6.70;96.70;;;;;;5084443;28;19964;-74
2023/02/08 09:31:36;;;;;;;;;;;6.80;96.70;;;;;;5074031;28;20369;-74
2023/02/08 09:34:05;;;;;;;;;;;6.80;96.70;;;;;;5059553;28;19950;-74
2023/02/08 09:36:33;;;;;;;;;;;6.80;96.70;;;;;;5056572;28;19931;-76
2023/02/08 09:39:03;;;;;;;;;;;6.90;96.70;;;;;;5083953;28;19924;-76
2023/02/08 09:41:37;;;;;;;;;;;7.00;96.70;;;;;;5083702;28;19935;-75
2023/02/08 09:44:13;;;;;;;;;;;7.10;96.70;;;;;;5062911;28;19928;-76
2023/02/08 09:46:48;;;;;;;;;;;7.10;96.70;;;;;;5061277;28;19967;-76
2023/02/08 09:49:18;;;;;;;;;;;7.20;96.70;;;;;;5083641;28;20391;-73
2023/02/08 09:51:49;;;;;;;;;;;7.20;96.70;;;;;;5078312;28;20316;-73
2023/02/08 09:54:18;;;;;;;;;;;7.30;96.70;;;;;;5066215;28;19927;-75
2023/02/08 09:56:47;;;;;;;;;;;7.40;96.70;;;;;;5083729;28;19927;-75
2023/02/08 09:59:15;;;;;;;;;;;7.40;96.70;;;;;;5066820;28;19947;-74
2023/02/08 10:01:45;;;;;;;;;;;7.50;96.70;;;;;;5064179;28;20033;-74
2023/02/08 10:04:34;;;;;;;;;;;7.60;96.70;;;;;;5084168;28;20407;-76
2023/02/08 10:07:01;;;;;;;;;;;7.70;96.70;;;;;;5042329;28;20018;-76
2023/02/08 10:09:29;;;;;;;;;;;7.70;96.70;;;;;;5084212;28;19927;-73
2023/02/08 10:12:01;;;;;;;;;;;7.70;96.70;;;;;;5057272;28;20506;-72
2023/02/08 10:14:37;;;;;;;;;;;7.70;96.70;;;;;;5065312;28;20073;-72
2023/02/08 10:17:14;;;;;;;;;;;7.80;96.70;;;;;;5084275;28;19954;-71
2023/02/08 10:19:49;;;;;;;;;;;7.80;96.70;;;;;;5080133;28;20011;-73
2023/02/08 10:22:23;;;;;;;;;;;7.90;96.70;;;;;;5075608;28;19935;-73
2023/02/08 10:24:57;;;;;;;;;;;8.10;96.70;;;;;;5065321;28;19931;-73
2023/02/08 10:27:27;;;;;;;;;;;8.10;96.70;;;;;;5083229;28;19978;-73
2023/02/08 10:30:01;;;;;;;;;;;8.20;96.70;;;;;;5057117;28;19928;-73
2023/02/08 10:32:50;;;;;;;;;;;8.20;96.70;;;;;;5063146;28;19932;-72
2023/02/08 10:35:22;;;;;;;;;;;8.20;96.70;;;;;;5070999;28;19955;-71
2023/02/08 10:37:49;;;;;;;;;;;8.20;96.70;;;;;;5083705;28;19963;-70
2023/02/08 10:40:25;;;;;;;;;;;8.30;96.70;;;;;;5082540;28;19932;-70
2023/02/08 10:42:54;;;;;;;;;;;8.40;96.70;;;;;;5064350;28;19924;-71
2023/02/08 10:45:25;;;;;;;;;;;8.40;96.70;;;;;;5083141;28;19927;-71
2023/02/08 10:47:54;;;;;;;;;;;8.50;96.70;;;;;;5061428;28;19924;-72
2023/02/08 10:50:25;;;;;;;;;;;8.60;96.70;;;;;;5057014;28;19924;-72
2023/02/08 10:52:55;;;;;;;;;;;8.60;96.70;;;;;;5067729;28;19932;-71
2023/02/08 10:55:23;;;;;;;;;;;8.70;96.70;;;;;;5064228;28;19928;-71
2023/02/08 10:57:55;;;;;;;;;;;8.70;96.70;;;;;;5082797;28;19928;-72
2023/02/08 11:00:25;;;;;;;;;;;8.80;96.70;;;;;;5064659;28;19930;-72
2023/02/08 11:02:54;;;;;;;;;;;8.80;96.70;;;;;;5061607;28;19924;-70
2023/02/08 11:05:31;;;;;;;;;;;8.90;96.70;;;;;;5048368;28;20676;-70
2023/02/08 11:08:06;;;;;;;;;;;8.90;96.70;;;;;;5062940;28;20022;-70
2023/02/08 11:10:34;;;;;;;;;;;9.00;96.70;;;;;;5082506;28;20735;-69
2023/02/08 11:13:04;;;;;;;;;;;9.10;96.70;;;;;;5082726;28;19949;-70
2023/02/08 11:15:36;;;;;;;;;;;9.20;96.70;;;;;;5057230;28;20018;-70
2023/02/08 11:18:04;;;;;;;;;;;9.20;96.70;;;;;;5064672;28;19924;-70
2023/02/08 11:20:36;;;;;;;;;;;9.10;96.70;;;;;;5061863;28;20019;-70
2023/02/08 11:23:03;;;;;;;;;;;9.10;96.70;;;;;;5083151;28;19924;-70
2023/02/08 11:25:36;;;;;;;;;;;9.30;96.70;;;;;;5081901;28;20397;-71
2023/02/08 11:28:04;;;;;;;;;;;9.40;96.70;;;;;;5050340;28;20373;-70
2023/02/08 11:30:32;;;;;;;;;;;9.60;96.70;;;;;;5055244;28;19923;-70
2023/02/08 11:33:14;;;;;;;;;;;9.60;96.70;;;;;;5064828;28;19924;-70
2023/02/08 11:35:51;;;;;;;;;;;9.40;96.70;;;;;;5064628;28;19931;-70
2023/02/08 11:38:21;;;;;;;;;;;9.50;96.70;;;;;;5064902;28;19928;-70
2023/02/08 11:40:48;;;;;;;;;;;9.60;96.70;;;;;;5082309;28;19924;-70
2023/02/08 11:43:20;;;;;;;;;;;9.60;96.70;;;;;;5076337;28;19925;-70
2023/02/08 11:45:47;;;;;;;;;;;9.70;96.70;;;;;;5080656;28;19935;-70
2023/02/08 11:48:20;;;;;;;;;;;9.80;96.70;;;;;;5082238;28;20023;-71
2023/02/08 11:50:54;;;;;;;;;;;9.70;96.70;;;;;;5056638;28;20470;-70
2023/02/08 11:53:26;;;;;;;;;;;9.70;96.70;;;;;;5063778;28;20361;-70
2023/02/08 11:56:01;;;;;;;;;;;9.80;96.70;;;;;;5081621;28;19928;-71
2023/02/08 11:58:29;;;;;;;;;;;9.90;96.70;;;;;;5059953;28;20019;-70
2023/02/08 12:00:58;;;;;;;;;;;9.90;96.70;;;;;;5066826;28;20094;-70
2023/02/08 12:03:27;;;;;;;;;;;9.90;96.70;;;;;;5060082;28;19990;-70
2023/02/08 12:06:02;;;;;;;;;;;10.00;96.70;;;;;;5085990;28;20019;-71
2023/02/08 12:08:32;;;;;;;;;;;10.10;96.70;;;;;;5068183;28;20010;-70
2023/02/08 12:11:06;;;;;;;;;;;10.20;96.70;;;;;;5066989;28;19951;-71
2023/02/08 12:13:54;;;;;;;;;;;10.30;96.70;;;;;;5085916;28;19924;-71
2023/02/08 12:16:33;;;;;;;;;;;10.30;96.70;;;;;;5067547;28;19931;-70
2023/02/08 12:19:13;;;;;;;;;;;10.30;96.70;;;;;;5067887;28;19924;-70
2023/02/08 12:21:42;;;;;;;;;;;10.20;96.70;;;;;;5073829;28;19981;-71
2023/02/08 12:24:16;;;;;;;;;;;10.30;96.70;;;;;;5050854;28;20009;-70
2023/02/08 12:26:51;;;;;;;;;;;10.20;96.70;;;;;;5061028;28;20018;-70
2023/02/08 12:29:23;;;;;;;;;;;10.30;96.70;;;;;;5056229;28;19975;-70
2023/02/08 12:31:57;;;;;;;;;;;10.20;96.70;;;;;;5062706;28;19924;-70
2023/02/08 12:34:32;;;;;;;;;;;10.20;96.70;;;;;;5066982;28;19950;-70
2023/02/08 12:42:48;;;;;;;;;;;10.50;96.70;;;;;;5066570;28;19924;-71
2023/02/08 12:45:30;;;;;;;;;;;10.60;96.70;;;;;;5085804;28;19930;-71
2023/02/08 12:48:01;;;;;;;;;;;10.60;96.70;;;;;;5067215;28;19935;-70
2023/02/08 12:50:34;;;;;;;;;;;10.60;96.70;;;;;;5084760;28;20389;-70
2023/02/08 12:53:07;;;;;;;;;;;10.60;96.70;;;;;;5085658;28;19924;-70
2023/02/08 12:55:36;;;;;;;;;;;10.50;96.70;;;;;;5072996;28;19924;-71
2023/02/08 12:58:21;;;;;;;;;;;10.60;96.70;;;;;;5085430;28;19923;-71
2023/02/08 13:00:49;;;;;;;;;;;10.60;96.70;;;;;;5066394;28;20442;-71
2023/02/08 13:03:21;;;;;;;;;;;10.60;96.70;;;;;;5072420;28;19924;-70
2023/02/08 13:05:49;;;;;;;;;;;10.50;96.70;;;;;;5067015;28;19981;-71
2023/02/08 13:08:31;;;;;;;;;;;10.60;96.70;;;;;;5063816;28;20088;-71
2023/02/08 13:11:01;;;;;;;;;;;10.60;96.70;;;;;;5064774;28;19969;-71
2023/02/08 13:13:49;;;;;;;;;;;10.60;96.70;;;;;;5084944;28;20010;-70
2023/02/08 13:16:18;;;;;;;;;;;10.60;96.70;;;;;;5084691;28;20013;-71
2023/02/08 13:18:49;;;;;;;;;;;10.70;96.70;;;;;;5075519;28;20450;-71
2023/02/08 13:21:18;;;;;;;;;;;10.70;96.70;;;;;;5057456;28;20407;-70
2023/02/08 13:23:48;;;;;;;;;;;10.70;96.70;;;;;;5056525;28;19927;-71
2023/02/08 13:26:21;;;;;;;;;;;10.70;96.70;;;;;;5078795;28;20571;-71
2023/02/08 13:28:50;;;;;;;;;;;10.70;96.70;;;;;;5066000;28;20382;-71
2023/02/08 13:31:19;;;;;;;;;;;10.70;96.70;;;;;;5061712;28;19974;-70
2023/02/08 13:33:48;;;;;;;;;;;10.60;96.70;;;;;;5065097;28;19932;-71
2023/02/08 13:36:29;;;;;;;;;;;10.60;96.70;;;;;;5053546;28;19928;-71
2023/02/08 13:38:59;;;;;;;;;;;10.50;96.70;;;;;;5084255;28;19931;-71
2023/02/08 13:41:27;;;;;;;;;;;10.60;96.70;;;;;;5065282;28;19924;-72
2023/02/08 13:43:55;;;;;;;;;;;10.60;96.70;;;;;;5065288;28;20422;-71
2023/02/08 13:46:24;;;;;;;;;;;10.70;96.70;;;;;;5084525;28;19928;-71
2023/02/08 13:48:54;;;;;;;;;;;10.60;96.70;;;;;;5066174;28;19930;-71
2023/02/08 13:51:39;;;;;;;;;;;10.60;96.70;;;;;;5084447;28;19924;-71
2023/02/08 13:54:12;;;;;;;;;;;10.60;96.70;;;;;;5065268;28;20158;-71
2023/02/08 13:56:40;;;;;;;;;;;10.50;96.70;;;;;;5080407;28;20933;-71
2023/02/08 13:59:24;;;;;;;;;;;10.10;96.70;;;;;;5084024;28;19934;-71
2023/02/08 14:02:10;;;;;;;;;;;9.90;96.70;;;;;;5050133;28;20312;-71
2023/02/08 14:04:38;;;;;;;;;;;9.60;96.70;;;;;;5076737;28;19935;-71
2023/02/08 14:07:12;;;;;;;;;;;9.50;96.70;;;;;;5083975;28;20027;-71
2023/02/08 14:09:46;;;;;;;;;;;9.40;96.70;;;;;;5065914;28;19931;-71
2023/02/08 14:12:18;;;;;;;;;;;9.30;96.70;;;;;;5082966;28;19956;-71
2023/02/08 14:15:00;;;;;;;;;;;9.20;96.70;;;;;;5075305;28;19931;-71
2023/02/08 14:17:28;;;;;;;;;;;9.10;96.70;;;;;;5074597;28;19975;-71
2023/02/08 14:19:57;;;;;;;;;;;9.10;96.70;;;;;;5077285;28;19924;-71
2023/02/08 14:22:26;;;;;;;;;;;9.00;96.70;;;;;;5074291;28;20022;-71
2023/02/08 14:25:03;;;;;;;;;;;9.00;96.70;;;;;;5083377;28;20436;-71
2023/02/08 14:27:33;;;;;;;;;;;9.10;96.70;;;;;;5064840;28;19946;-71
2023/02/08 14:30:03;;;;;;;;;;;9.40;96.70;;;;;;5080015;28;20293;-75
2023/02/08 14:32:31;;;;;;;;;;;9.50;96.70;;;;;;5064109;28;19959;-75
2023/02/08 14:35:01;;;;;;;;;;;9.60;96.70;;;;;;5083069;28;19924;-75
2023/02/08 14:37:30;;;;;;;;;;;9.60;96.70;;;;;;5065023;28;20337;-75
2023/02/08 14:40:17;;;;;;;;;;;9.50;96.70;;;;;;5064980;28;19924;-75
2023/02/08 14:42:56;;;;;;;;;;;9.50;96.70;;;;;;5064873;28;20051;-75
2023/02/08 14:45:29;;;;;;;;;;;9.50;96.70;;;;;;5047213;28;20424;-81
2023/02/08 14:47:59;;;;;;;;;;;9.50;96.70;;;;;;5040320;28;19985;-75
2023/02/08 14:50:41;;;;;;;;;;;9.60;96.70;;;;;;5057596;28;19925;-74
2023/02/08 14:53:17;;;;;;;;;;;9.60;96.70;;;;;;5050247;28;19928;-75
2023/02/08 14:55:48;;;;;;;;;;;9.40;96.70;;;;;;5079376;28;20404;-73